createdAt,value
2023-03-01T00:08:04.266Z,175.80
2023-03-01T00:18:10.876Z,155.80
2023-03-01T00:28:16.649Z,155.10
2023-03-01T00:38:22.385Z,150.00
2023-03-01T00:48:28.382Z,153.80
2023-03-01T00:58:34.650Z,171.90
2023-03-01T01:08:40.218Z,144.30
2023-03-01T01:18:45.958Z,150.40
2023-03-01T01:28:52.384Z,148.30
2023-03-01T01:38:58.566Z,171.00
2023-03-01T01:49:07.552Z,152.10
2023-03-01T01:59:14.194Z,156.40
2023-03-01T02:09:23.949Z,161.90
2023-03-01T02:19:41.885Z,146.40
2023-03-01T02:29:47.549Z,146.00
2023-03-01T02:39:58.873Z,151.80
2023-03-01T02:50:12.948Z,149.20
2023-03-01T03:00:26.206Z,163.70
2023-03-01T03:10:34.911Z,168.60
2023-03-01T03:20:41.964Z,151.50
2023-03-01T03:30:48.209Z,164.70
2023-03-01T03:41:03.455Z,155.60
2023-03-01T03:51:11.934Z,161.10
2023-03-01T04:01:17.751Z,170.20
2023-03-01T04:11:29.399Z,161.80
2023-03-01T04:21:35.381Z,151.50
2023-03-01T04:31:41.187Z,156.40
2023-03-01T04:41:47.039Z,157.00
2023-03-01T04:51:52.746Z,147.80
2023-03-01T05:02:02.192Z,149.30
2023-03-01T05:12:08.563Z,142.40
2023-03-01T05:22:14.221Z,146.40
2023-03-01T05:32:20.137Z,148.90
2023-03-01T05:42:25.945Z,154.80
2023-03-01T05:52:31.675Z,154.60
2023-03-01T06:02:37.591Z,168.50
2023-03-01T06:12:44.833Z,159.00
2023-03-01T06:22:51.405Z,162.00
2023-03-01T06:33:02.397Z,151.50
2023-03-01T06:43:08.653Z,120.40
2023-03-01T06:53:14.465Z,74.60
2023-03-01T07:03:20.087Z,73.40
2023-03-01T07:13:25.894Z,65.10
2023-03-01T07:23:31.954Z,62.80
2023-03-01T07:33:37.606Z,52.70
2023-03-01T07:43:43.712Z,46.20
2023-03-01T07:53:50.941Z,39.50
2023-03-01T08:14:00.910Z,31.90
2023-03-01T08:24:08.170Z,34.70
2023-03-01T08:34:15.758Z,51.50
2023-03-01T08:44:22.033Z,28.90
2023-03-01T08:54:27.716Z,23.20
2023-03-01T09:04:34.368Z,22.00
2023-03-01T09:14:40.140Z,26.90
2023-03-01T09:35:08.398Z,20.90
2023-03-01T09:45:25.092Z,22.50
2023-03-01T09:55:35.529Z,19.70
2023-03-01T10:05:49.465Z,28.40
2023-03-01T10:15:59.330Z,21.90
2023-03-01T10:26:34.308Z,22.80
2023-03-01T10:36:42.796Z,20.20
2023-03-01T10:47:01.000Z,27.80
2023-03-01T10:57:07.733Z,17.10
2023-03-01T11:07:13.428Z,19.50
2023-03-01T11:17:27.397Z,13.80
2023-03-01T11:27:39.328Z,10.60
2023-03-01T11:37:53.451Z,15.00
2023-03-01T11:48:09.340Z,12.70
2023-03-01T11:58:39.487Z,19.10
2023-03-01T12:08:51.782Z,13.20
2023-03-01T12:19:10.851Z,17.40
2023-03-01T12:29:30.024Z,14.20
2023-03-01T12:39:51.247Z,21.30
2023-03-01T12:50:00.109Z,13.50
2023-03-01T13:00:20.058Z,13.90
2023-03-01T13:10:33.234Z,21.20
2023-03-01T13:20:51.092Z,17.90
2023-03-01T13:30:56.762Z,16.00
2023-03-01T13:41:03.444Z,23.90
2023-03-01T13:51:13.225Z,18.20
2023-03-01T14:01:26.686Z,24.70
2023-03-01T14:22:14.627Z,18.20
2023-03-01T14:32:23.781Z,8.80
2023-03-01T14:42:34.032Z,12.80
2023-03-01T14:52:44.935Z,10.70
2023-03-01T15:02:53.583Z,13.40
2023-03-01T15:13:11.886Z,15.80
2023-03-01T15:23:25.901Z,12.00
2023-03-01T15:33:35.738Z,14.90
2023-03-01T15:43:43.439Z,17.10
2023-03-01T15:53:54.996Z,16.60
2023-03-01T16:04:00.820Z,20.50
2023-03-01T16:14:06.591Z,16.70
2023-03-01T16:24:12.427Z,18.70
2023-03-01T16:34:18.102Z,47.20
2023-03-01T16:44:23.751Z,37.60
2023-03-01T16:54:29.699Z,25.10
2023-03-01T17:04:35.313Z,39.10
2023-03-01T17:14:42.313Z,29.60
2023-03-01T17:24:48.205Z,33.20
2023-03-01T17:34:53.956Z,43.30
2023-03-01T17:45:00.671Z,38.40
2023-03-01T17:55:06.884Z,32.60
2023-03-01T18:05:13.728Z,39.40
2023-03-01T18:15:20.248Z,155.00
2023-03-01T18:25:25.904Z,71.40
2023-03-01T18:35:32.235Z,85.30
2023-03-01T18:45:38.140Z,82.70
2023-03-01T18:55:43.827Z,81.00
2023-03-01T19:05:49.463Z,78.10
2023-03-01T19:16:03.656Z,82.30
2023-03-01T19:26:11.175Z,91.60
2023-03-01T19:36:17.634Z,90.00
2023-03-01T19:46:23.581Z,80.40
2023-03-01T20:06:33.936Z,82.00
2023-03-01T20:16:39.894Z,87.00
2023-03-01T20:26:45.803Z,97.50
2023-03-01T20:36:51.508Z,104.40
2023-03-01T20:46:57.358Z,91.70
2023-03-01T20:57:04.284Z,102.70
2023-03-01T21:07:09.914Z,122.50
2023-03-01T21:17:18.249Z,131.80
2023-03-01T21:27:23.903Z,148.80
2023-03-01T21:47:35.995Z,158.90
2023-03-01T21:57:44.237Z,162.00
2023-03-01T22:07:50.312Z,159.00
2023-03-01T22:28:00.990Z,139.00
2023-03-01T22:38:06.665Z,136.80
2023-03-01T22:58:16.421Z,190.00
2023-03-01T23:18:26.411Z,144.70
2023-03-01T23:28:32.447Z,161.70
2023-03-01T23:38:38.108Z,167.70
2023-03-01T23:48:44.664Z,182.30
2023-03-01T23:58:50.951Z,218.50
